Galena, Missouri
Current Conditions -  °F | °C
As of 4:55 PM on Thursday 20 Nov 2014 (Local Time) from KFWB Reporting Station
Clear Clear  
Wind Chill: 42°   Ceiling: Unl
Heat Index: 46°   Visibility: 10mi
Dew Point: 21°   Wind: 8mph
Humidity: 37%   Direction: 80°E
Pressure: 30.12"   Gusts: NA
Location:  36.81°N, 93.47°W
Report Text: KFWB 202255Z AUTO 08007KT 060V120 10SM CLR 08/M06 A3012 RMK AO2
Loading
Personal Weather Stations






























Interactive Weather Map New forecast layout! Learn more

10-Day Weather Forecast

Advertisements
Track Severe Weather on mobile